createdAt,value
2022-10-13T00:02:42.112Z,34.33
2022-10-13T00:05:46.703Z,37.00
2022-10-13T00:08:50.349Z,30.33
2022-10-13T00:11:52.698Z,31.00
2022-10-13T00:14:54.855Z,30.33
2022-10-13T00:17:57.191Z,30.33
2022-10-13T00:20:59.496Z,35.33
2022-10-13T00:24:01.809Z,35.33
2022-10-13T00:27:03.942Z,30.67
2022-10-13T00:30:06.763Z,32.33
2022-10-13T00:33:10.580Z,34.00
2022-10-13T00:36:13.253Z,29.67
2022-10-13T00:39:15.276Z,34.67
2022-10-13T00:42:17.907Z,34.33
2022-10-13T00:45:21.235Z,36.33
2022-10-13T00:48:28.944Z,38.00
2022-10-13T00:51:35.064Z,34.67
2022-10-13T00:54:37.642Z,30.67
2022-10-13T00:57:42.128Z,35.00
2022-10-13T01:00:49.706Z,35.67
2022-10-13T01:03:52.909Z,33.00
2022-10-13T01:06:56.347Z,36.67
2022-10-13T01:10:00.970Z,36.00
2022-10-13T01:13:22.578Z,34.67
2022-10-13T01:16:28.130Z,36.33
2022-10-13T01:19:49.020Z,40.33
2022-10-13T01:23:12.530Z,32.00
2022-10-13T01:26:23.686Z,37.00
2022-10-13T01:30:03.033Z,36.67
2022-10-13T01:33:29.636Z,38.33
2022-10-13T01:36:55.327Z,39.00
2022-10-13T01:40:29.522Z,38.33
2022-10-13T01:43:37.609Z,41.00
2022-10-13T01:46:41.671Z,39.67
2022-10-13T01:49:43.879Z,42.67
2022-10-13T01:52:47.688Z,43.33
2022-10-13T01:55:55.597Z,42.00
2022-10-13T01:59:00.103Z,40.67
2022-10-13T02:02:19.568Z,42.00
2022-10-13T02:05:51.224Z,43.00
2022-10-13T02:09:12.374Z,44.00
2022-10-13T02:12:30.682Z,42.33
2022-10-13T02:15:38.684Z,46.67
2022-10-13T02:18:44.337Z,45.00
2022-10-13T02:21:47.221Z,46.67
2022-10-13T02:24:49.707Z,45.67
2022-10-13T02:27:53.622Z,46.00
2022-10-13T02:30:56.159Z,44.67
2022-10-13T02:33:58.315Z,44.00
2022-10-13T02:37:00.461Z,44.33
2022-10-13T02:40:02.678Z,46.00
2022-10-13T02:43:05.408Z,45.33
2022-10-13T02:46:07.547Z,46.67
2022-10-13T02:49:10.386Z,45.00
2022-10-13T02:52:12.601Z,47.00
2022-10-13T02:55:17.372Z,49.67
2022-10-13T02:58:20.925Z,47.67
2022-10-13T03:01:23.182Z,47.50
2022-10-13T03:04:25.213Z,51.00
2022-10-13T03:07:29.175Z,48.00
2022-10-13T03:10:32.069Z,49.00
2022-10-13T03:13:34.291Z,50.33
2022-10-13T03:16:41.514Z,47.33
2022-10-13T03:19:45.368Z,44.67
2022-10-13T03:22:52.780Z,47.33
2022-10-13T03:25:56.257Z,27.33
2022-10-13T03:28:58.254Z,49.00
2022-10-13T03:32:00.418Z,45.33
2022-10-13T03:35:02.447Z,49.33
2022-10-13T03:38:04.769Z,49.33
2022-10-13T03:41:10.192Z,53.67
2022-10-13T03:44:13.387Z,48.50
2022-10-13T03:47:15.380Z,49.25
2022-10-13T03:50:17.708Z,52.00
2022-10-13T03:53:20.156Z,49.00
2022-10-13T03:56:25.164Z,51.25
2022-10-13T03:59:34.193Z,52.00
2022-10-13T04:02:39.073Z,49.00
2022-10-13T04:05:41.164Z,59.00
2022-10-13T04:08:43.693Z,50.50
2022-10-13T04:11:45.715Z,50.50
2022-10-13T04:14:48.073Z,57.75
2022-10-13T04:17:50.105Z,53.25
2022-10-13T04:20:52.392Z,54.00
2022-10-13T04:23:57.253Z,57.25
2022-10-13T04:26:59.577Z,55.75
2022-10-13T04:30:01.936Z,59.00
2022-10-13T04:33:04.541Z,59.25
2022-10-13T04:36:08.663Z,59.25
2022-10-13T04:39:10.787Z,60.75
2022-10-13T04:42:12.935Z,60.00
2022-10-13T04:45:15.347Z,61.25
2022-10-13T04:48:17.906Z,64.00
2022-10-13T04:51:22.745Z,63.25
2022-10-13T04:54:24.839Z,63.50
2022-10-13T04:57:27.070Z,65.00
2022-10-13T05:00:29.160Z,61.00
2022-10-13T05:03:32.299Z,63.50
2022-10-13T05:06:41.609Z,63.25
2022-10-13T05:09:52.018Z,64.00
2022-10-13T05:12:54.041Z,60.50
2022-10-13T05:15:56.683Z,64.00
2022-10-13T05:18:58.845Z,63.75
2022-10-13T05:22:01.199Z,66.00
2022-10-13T05:25:03.380Z,65.00
2022-10-13T05:28:07.000Z,69.00
2022-10-13T05:31:12.870Z,68.25
2022-10-13T05:34:15.348Z,64.75
2022-10-13T05:37:18.454Z,66.50
2022-10-13T05:40:23.721Z,69.00
2022-10-13T05:43:32.243Z,69.00
2022-10-13T05:46:34.769Z,65.75
2022-10-13T05:49:39.890Z,68.00
2022-10-13T05:52:42.613Z,69.00
2022-10-13T05:55:45.130Z,69.75
2022-10-13T05:58:51.781Z,67.00
2022-10-13T06:01:54.416Z,71.00
2022-10-13T06:04:58.180Z,74.75
2022-10-13T06:08:00.624Z,72.00
2022-10-13T06:11:04.459Z,72.50
2022-10-13T06:14:06.696Z,71.50
2022-10-13T06:17:09.167Z,70.75
2022-10-13T06:20:12.419Z,61.25
2022-10-13T06:23:14.645Z,69.25
2022-10-13T06:26:16.931Z,72.00
2022-10-13T06:29:19.144Z,75.25
2022-10-13T06:32:21.612Z,73.75
2022-10-13T06:35:24.504Z,75.25
2022-10-13T06:38:26.521Z,75.25
2022-10-13T06:41:28.761Z,74.50
2022-10-13T06:44:32.122Z,75.50
2022-10-13T06:47:36.903Z,74.00
2022-10-13T06:50:42.779Z,74.75
2022-10-13T06:53:45.439Z,70.25
2022-10-13T06:56:47.518Z,71.75
2022-10-13T06:59:50.304Z,74.00
2022-10-13T07:02:52.636Z,75.50
2022-10-13T07:05:54.870Z,76.00
2022-10-13T07:08:56.956Z,76.75
2022-10-13T07:11:59.292Z,75.50
2022-10-13T07:15:01.426Z,75.00
2022-10-13T07:18:03.792Z,76.00
2022-10-13T07:21:07.054Z,73.00
2022-10-13T07:24:10.285Z,74.75
2022-10-13T07:27:12.232Z,72.25
2022-10-13T07:30:14.941Z,76.75
2022-10-13T07:33:17.008Z,76.50
2022-10-13T07:36:20.075Z,66.00
2022-10-13T07:39:22.179Z,74.75
2022-10-13T07:42:24.569Z,73.00
2022-10-13T07:45:26.652Z,67.25
2022-10-13T07:48:29.013Z,66.50
2022-10-13T07:51:34.604Z,69.75
2022-10-13T07:54:37.071Z,66.75
2022-10-13T07:57:39.137Z,70.00
2022-10-13T08:00:41.639Z,71.50
2022-10-13T08:03:48.858Z,65.33
2022-10-13T08:06:53.848Z,66.33
2022-10-13T08:09:56.077Z,64.67
2022-10-13T08:12:58.438Z,66.33
2022-10-13T08:16:01.485Z,61.67
2022-10-13T08:19:03.798Z,60.67
2022-10-13T08:22:09.629Z,54.00
2022-10-13T08:25:12.479Z,55.00
2022-10-13T08:28:26.174Z,46.67
2022-10-13T08:31:28.852Z,55.33
2022-10-13T08:34:31.209Z,48.67
2022-10-13T08:37:33.535Z,43.50
2022-10-13T08:40:35.682Z,42.75
2022-10-13T08:43:49.111Z,44.50
2022-10-13T08:47:04.460Z,42.00
2022-10-13T08:50:18.939Z,35.00
2022-10-13T08:53:43.621Z,31.00
2022-10-13T08:56:49.964Z,28.00
2022-10-13T08:59:52.562Z,36.50
2022-10-13T09:03:01.726Z,27.75
2022-10-13T09:06:07.551Z,18.00
2022-10-13T09:09:11.657Z,18.25
2022-10-13T09:12:15.736Z,18.25
2022-10-13T09:15:18.511Z,15.50
2022-10-13T09:18:28.934Z,15.25
2022-10-13T09:21:31.322Z,10.25
2022-10-13T09:24:34.130Z,13.25
2022-10-13T09:27:48.634Z,10.75
2022-10-13T09:31:03.247Z,13.75
2022-10-13T09:34:25.307Z,11.75
2022-10-13T09:37:35.473Z,8.75
2022-10-13T09:40:40.735Z,9.25
2022-10-13T09:43:59.381Z,10.25
2022-10-13T09:47:03.510Z,9.25
2022-10-13T09:50:17.125Z,8.00
2022-10-13T09:53:31.158Z,10.25
2022-10-13T09:56:46.753Z,6.50
2022-10-13T09:59:50.318Z,8.75
2022-10-13T10:03:13.380Z,10.75
2022-10-13T10:06:16.965Z,9.00
2022-10-13T10:09:22.337Z,8.00
2022-10-13T10:12:30.172Z,12.50
2022-10-13T10:15:56.913Z,12.00
2022-10-13T10:19:05.414Z,12.00
2022-10-13T10:22:16.234Z,6.00
2022-10-13T10:26:03.140Z,12.25
2022-10-13T10:29:41.085Z,9.50
2022-10-13T10:32:45.121Z,12.50
2022-10-13T10:35:59.215Z,10.00
2022-10-13T10:39:24.075Z,12.75
2022-10-13T10:42:52.258Z,11.00
2022-10-13T10:45:57.630Z,13.00
2022-10-13T10:49:03.378Z,13.00
2022-10-13T10:52:10.140Z,12.50
2022-10-13T10:55:35.133Z,13.75
2022-10-13T10:59:23.716Z,13.00
2022-10-13T11:02:47.254Z,14.00
2022-10-13T11:05:59.656Z,15.50
2022-10-13T11:09:02.402Z,8.00
2022-10-13T11:12:22.563Z,11.25
2022-10-13T11:15:43.005Z,14.75
2022-10-13T11:19:06.226Z,12.75
2022-10-13T11:22:16.265Z,12.00
2022-10-13T11:25:41.917Z,13.25
2022-10-13T11:28:45.865Z,13.25
2022-10-13T11:31:52.731Z,12.25
2022-10-13T11:35:00.996Z,10.75
2022-10-13T11:38:17.873Z,10.25
2022-10-13T11:41:27.219Z,8.00
2022-10-13T11:44:58.317Z,8.75
2022-10-13T11:48:45.379Z,8.25
2022-10-13T11:52:22.785Z,10.50
2022-10-13T11:55:34.535Z,7.50
2022-10-13T11:58:42.366Z,8.75
2022-10-13T12:01:45.140Z,7.75
2022-10-13T12:05:26.189Z,8.50
2022-10-13T12:08:29.791Z,7.00
2022-10-13T12:11:35.832Z,9.50
2022-10-13T12:14:40.467Z,8.25
2022-10-13T12:17:44.494Z,7.00
2022-10-13T12:20:55.980Z,7.00
2022-10-13T12:24:07.764Z,9.25
2022-10-13T12:27:21.294Z,7.00
2022-10-13T12:30:27.859Z,8.00
2022-10-13T12:33:33.334Z,6.00
2022-10-13T12:36:35.709Z,6.00
2022-10-13T12:39:38.646Z,7.75
2022-10-13T12:42:41.796Z,8.25
2022-10-13T12:45:44.452Z,6.50
2022-10-13T12:48:48.380Z,8.25
2022-10-13T12:51:55.677Z,9.25
2022-10-13T12:55:00.426Z,8.00
2022-10-13T12:58:03.118Z,9.25
2022-10-13T13:01:14.528Z,6.50
2022-10-13T13:04:22.669Z,9.25
2022-10-13T13:07:32.394Z,6.00
2022-10-13T13:10:35.268Z,7.50
2022-10-13T13:13:37.527Z,7.25
2022-10-13T13:16:39.578Z,6.50
2022-10-13T13:19:44.282Z,6.75
2022-10-13T13:22:46.461Z,9.25
2022-10-13T13:26:00.342Z,6.50
2022-10-13T13:29:02.533Z,6.00
2022-10-13T13:32:04.861Z,7.00
2022-10-13T13:35:08.556Z,5.50
2022-10-13T13:38:10.825Z,7.75
2022-10-13T13:41:13.765Z,6.50
2022-10-13T13:44:16.001Z,5.25
2022-10-13T13:47:22.713Z,7.50
2022-10-13T13:50:27.402Z,6.25
2022-10-13T13:53:32.635Z,6.75
2022-10-13T13:56:34.982Z,7.00
2022-10-13T13:59:37.579Z,5.00
2022-10-13T14:02:40.426Z,8.25
2022-10-13T14:05:42.524Z,7.50
2022-10-13T14:08:45.954Z,7.75
2022-10-13T14:11:48.008Z,7.50
2022-10-13T14:14:50.290Z,7.25
2022-10-13T14:17:57.075Z,7.00
2022-10-13T14:20:59.306Z,10.75
2022-10-13T14:24:01.365Z,10.00
2022-10-13T14:27:03.726Z,8.50
2022-10-13T14:30:06.964Z,9.50
2022-10-13T14:33:09.457Z,8.25
2022-10-13T14:36:11.659Z,10.00
2022-10-13T14:39:14.156Z,10.50
2022-10-13T14:42:16.182Z,10.50
2022-10-13T14:45:18.452Z,11.00
2022-10-13T14:48:24.693Z,11.75
2022-10-13T14:51:27.217Z,11.00
2022-10-13T14:54:29.246Z,9.50
2022-10-13T14:57:31.479Z,11.75
2022-10-13T15:00:33.584Z,8.75
2022-10-13T15:03:36.720Z,10.25
2022-10-13T15:06:39.380Z,9.50
2022-10-13T15:09:53.173Z,9.00
2022-10-13T15:13:02.940Z,7.25
2022-10-13T15:16:06.074Z,9.50
2022-10-13T15:19:08.081Z,9.50
2022-10-13T15:22:10.340Z,10.00
2022-10-13T15:25:12.645Z,9.00
2022-10-13T15:28:14.897Z,9.00
2022-10-13T15:31:18.181Z,9.00
2022-10-13T15:34:20.438Z,9.00
2022-10-13T15:37:22.551Z,9.75
2022-10-13T15:40:25.012Z,8.00
2022-10-13T15:43:27.304Z,10.00
2022-10-13T15:46:31.487Z,9.00
2022-10-13T15:49:37.390Z,9.75
2022-10-13T15:52:40.487Z,11.00
2022-10-13T15:55:42.739Z,7.50
2022-10-13T15:58:45.692Z,8.00
2022-10-13T16:01:47.757Z,10.50
2022-10-13T16:04:50.845Z,10.50
2022-10-13T16:07:52.827Z,10.50
2022-10-13T16:10:55.255Z,8.75
2022-10-13T16:13:57.322Z,9.00
2022-10-13T16:16:59.664Z,8.75
2022-10-13T16:20:01.784Z,8.50
2022-10-13T16:23:04.992Z,9.75
2022-10-13T16:26:07.543Z,10.00
2022-10-13T16:29:09.852Z,9.50
2022-10-13T16:32:11.950Z,10.25
2022-10-13T16:35:14.363Z,9.25
2022-10-13T16:38:16.442Z,6.25
2022-10-13T16:41:19.109Z,11.00
2022-10-13T16:44:21.198Z,8.00
2022-10-13T16:47:23.998Z,9.00
2022-10-13T16:50:26.561Z,7.25
2022-10-13T16:53:28.870Z,13.00
2022-10-13T16:56:31.250Z,12.00
2022-10-13T16:59:33.603Z,9.25
2022-10-13T17:02:35.753Z,8.75
2022-10-13T17:05:38.130Z,9.25
2022-10-13T17:08:42.211Z,11.00
2022-10-13T17:11:44.601Z,9.75
2022-10-13T17:14:48.739Z,11.00
2022-10-13T17:17:52.272Z,9.25
2022-10-13T17:20:58.614Z,10.50
2022-10-13T17:24:01.642Z,10.00
2022-10-13T17:27:03.889Z,7.75
2022-10-13T17:30:06.758Z,14.00
2022-10-13T17:33:09.117Z,13.00
2022-10-13T17:36:28.910Z,13.50
2022-10-13T17:39:31.153Z,12.50
2022-10-13T17:42:34.301Z,12.75
2022-10-13T17:45:36.713Z,13.25
2022-10-13T17:48:39.676Z,10.50
2022-10-13T17:51:43.221Z,7.50
2022-10-13T17:54:45.690Z,10.25
2022-10-13T17:57:47.945Z,12.00
2022-10-13T18:01:11.807Z,14.25
2022-10-13T18:04:16.115Z,14.00
2022-10-13T18:07:18.892Z,15.00
2022-10-13T18:10:21.400Z,11.75
2022-10-13T18:13:23.725Z,15.50
2022-10-13T18:16:25.917Z,14.50
2022-10-13T18:19:28.189Z,17.25
2022-10-13T18:22:30.294Z,16.25
2022-10-13T18:25:35.707Z,19.75
2022-10-13T18:28:45.040Z,20.50
2022-10-13T18:31:56.632Z,24.50
2022-10-13T18:34:58.843Z,35.00
2022-10-13T18:38:01.215Z,35.25
2022-10-13T18:41:08.415Z,29.75
2022-10-13T18:44:10.924Z,39.25
2022-10-13T18:47:13.290Z,34.00
2022-10-13T18:50:15.793Z,36.25
2022-10-13T18:53:18.679Z,40.00
2022-10-13T18:56:30.366Z,43.00
2022-10-13T18:59:38.792Z,43.00
2022-10-13T19:02:41.221Z,39.00
2022-10-13T19:05:43.384Z,45.00
2022-10-13T19:08:46.831Z,42.67
2022-10-13T19:11:48.914Z,43.33
2022-10-13T19:14:51.539Z,45.00
2022-10-13T19:17:54.004Z,47.00
2022-10-13T19:20:56.454Z,43.33
2022-10-13T19:23:59.751Z,46.00
2022-10-13T19:27:02.143Z,42.33
2022-10-13T19:30:05.505Z,44.00
2022-10-13T19:33:09.179Z,44.33
2022-10-13T19:36:30.760Z,43.00
2022-10-13T19:39:35.951Z,46.33
2022-10-13T19:42:38.918Z,45.67
2022-10-13T19:45:47.462Z,42.00
2022-10-13T19:48:50.091Z,43.00
2022-10-13T19:51:58.378Z,40.00
2022-10-13T19:55:02.091Z,42.33
2022-10-13T19:58:06.276Z,43.67
2022-10-13T20:01:08.736Z,43.00
2022-10-13T20:04:11.224Z,45.33
2022-10-13T20:07:14.321Z,44.00
2022-10-13T20:10:16.721Z,47.67
2022-10-13T20:13:21.016Z,46.00
2022-10-13T20:16:26.575Z,42.00
2022-10-13T20:19:29.782Z,43.33
2022-10-13T20:22:32.595Z,45.00
2022-10-13T20:25:38.315Z,41.67
2022-10-13T20:28:43.305Z,42.33
2022-10-13T20:31:46.713Z,43.33
2022-10-13T20:34:49.126Z,42.67
2022-10-13T20:37:51.594Z,43.00
2022-10-13T20:40:55.153Z,46.33
2022-10-13T20:43:59.280Z,43.33
2022-10-13T20:47:01.885Z,12.00
2022-10-13T20:50:08.495Z,40.33
2022-10-13T20:53:10.828Z,47.00
2022-10-13T20:56:15.691Z,42.67
2022-10-13T20:59:17.949Z,43.00
2022-10-13T21:02:20.083Z,43.33
2022-10-13T21:05:24.733Z,43.67
2022-10-13T21:08:26.895Z,48.00
2022-10-13T21:11:29.284Z,48.00
2022-10-13T21:14:31.647Z,48.00
2022-10-13T21:17:34.057Z,40.67
2022-10-13T21:20:37.800Z,44.00
2022-10-13T21:23:41.362Z,45.67
2022-10-13T21:26:43.856Z,47.00
2022-10-13T21:29:49.677Z,43.00
2022-10-13T21:32:51.791Z,45.67
2022-10-13T21:35:54.151Z,45.33
2022-10-13T21:39:00.016Z,42.33
2022-10-13T21:42:02.605Z,43.33
2022-10-13T21:45:05.353Z,48.00
2022-10-13T21:48:07.597Z,42.67
2022-10-13T21:51:18.272Z,42.67
2022-10-13T21:54:20.579Z,46.33
2022-10-13T21:57:23.118Z,45.67
2022-10-13T22:00:25.703Z,48.67
2022-10-13T22:03:27.742Z,47.00
2022-10-13T22:06:31.987Z,45.00
2022-10-13T22:09:33.969Z,47.33
2022-10-13T22:12:36.306Z,45.00
2022-10-13T22:15:38.493Z,41.67
2022-10-13T22:18:41.524Z,44.33
2022-10-13T22:21:46.259Z,43.67
2022-10-13T22:24:48.502Z,47.00
2022-10-13T22:27:50.582Z,44.00
2022-10-13T22:30:53.313Z,41.00
2022-10-13T22:33:55.376Z,46.67
2022-10-13T22:36:57.572Z,44.00
2022-10-13T22:39:59.576Z,44.00
2022-10-13T22:43:01.811Z,45.67
2022-10-13T22:46:04.805Z,47.33
2022-10-13T22:49:07.732Z,24.33
2022-10-13T22:52:09.785Z,47.00
2022-10-13T22:55:12.140Z,44.67
2022-10-13T22:58:16.156Z,49.00
2022-10-13T23:01:18.992Z,45.33
2022-10-13T23:04:21.030Z,38.33
2022-10-13T23:07:23.674Z,44.33
2022-10-13T23:10:26.212Z,42.00
2022-10-13T23:13:28.421Z,49.00
2022-10-13T23:16:32.131Z,46.00
2022-10-13T23:19:37.598Z,49.00
2022-10-13T23:22:39.917Z,48.33
2022-10-13T23:25:42.250Z,46.00
2022-10-13T23:28:44.568Z,49.00
2022-10-13T23:31:46.931Z,49.00
2022-10-13T23:34:48.977Z,47.67
2022-10-13T23:37:53.015Z,49.67
2022-10-13T23:40:55.153Z,48.33
2022-10-13T23:43:57.896Z,49.00
2022-10-13T23:47:00.016Z,48.00
2022-10-13T23:50:02.372Z,51.33
2022-10-13T23:53:04.531Z,48.33
2022-10-13T23:56:07.670Z,49.67
2022-10-13T23:59:09.824Z,45.00
